• Join FlightAware (Why Join?)
  • Login
  • US Flag GB Flag 
01:59 EDT


 

Airport Tracker/Info


-or-


 

Live Flight TrackerFlight Track Log ✈ N27XP ✈ 01-May-2013 ✈ KBMG - KSOP

Flight Track Log - Related Links

Times and Time Zones

All times are in EDT time to prevent confusion due to time zone crossing. See the N27XP flight status page for this flight to view local times or setup timezone preferences in your user account.

Time Position Orientation Groundspeed Altitude Reporting Facility
EDT Latitude Longitude Course Direction KTS MPH feet Rate Location/Type
13:53 39.1103 -86.6086 171° South 171 197 2,700  Level Indianapolis Center
13:54 39.0567 -86.5972 171° South 189 217 4,900 2,280 Climbing Indianapolis Center
13:55 38.9850 -86.5822 171° South 231 266 7,500 2,340 Climbing Indianapolis Center
13:56 38.9367 -86.5372 144° Southeast 239 275 9,800 2,460 Climbing Indianapolis Center
13:57 38.8992 -86.4575 121° Southeast 259 298 12,700 3,000 Climbing Indianapolis Center
13:58 38.8547 -86.3642 121° Southeast 269 310 16,000 2,820 Climbing Indianapolis Center
13:59 38.8153 -86.2817 122° Southeast 270 311 18,600 2,220 Climbing Indianapolis Center
14:00 38.7739 -86.1978 122° Southeast 274 315 20,700 2,040 Climbing Indianapolis Center
14:01 38.7289 -86.1050 122° Southeast 298 343 22,900 1,920 Climbing Indianapolis Center
14:02 38.6831 -86.0089 121° Southeast 313 360 24,700 1,620 Climbing Indianapolis Center
14:03 38.6328 -85.9058 122° Southeast 334 384 26,300 1,080 Climbing Indianapolis Center
14:04 38.5786 -85.7981 123° Southeast 355 409 27,000 300 Climbing Indianapolis Center
14:05 38.5164 -85.6750 123° Southeast 406 467 27,000  Level Indianapolis Center
14:06 38.4383 -85.5158 122° Southeast 435 501 27,000  Level Indianapolis Center
14:07 38.3697 -85.3767 122° Southeast 454 522 27,000  Level Indianapolis Center
14:08 38.3008 -85.2406 123° Southeast 454 522 27,000  Level Indianapolis Center
14:09 38.2358 -85.1083 122° Southeast 452 520 27,000  Level Indianapolis Center
14:10 38.1664 -84.9758 124° Southeast 448 516 27,000  Level Indianapolis Center
14:11 38.0894 -84.8178 122° Southeast 448 516 27,000  Level Indianapolis Center
14:12 38.0217 -84.6853 123° Southeast 446 513 27,000  Level Indianapolis Center
14:13 37.9553 -84.5528 122° Southeast 443 510 27,000  Level Indianapolis Center
14:15 37.8856 -84.4225 124° Southeast 444 511 27,000  Level Indianapolis Center
14:16 37.8178 -84.2925 123° Southeast 443 510 27,000  Level Indianapolis Center
14:17 37.7511 -84.1600 122° Southeast 446 513 27,000  Level Indianapolis Center
14:18 37.6708 -84.0089 124° Southeast 444 511 27,000  Level Indianapolis Center
14:19 37.6031 -83.8775 123° Southeast 444 511 27,000  Level Indianapolis Center
14:20 37.5361 -83.7464 123° Southeast 442 509 27,000  Level Indianapolis Center
14:21 37.4683 -83.6181 124° Southeast 440 506 27,000  Level Indianapolis Center
14:22 37.4011 -83.4900 123° Southeast 440 506 27,000  Level Indianapolis Center
14:23 37.3328 -83.3625 124° Southeast 439 505 27,000  Level Indianapolis Center
14:24 37.2533 -83.2128 124° Southeast 439 505 27,000  Level Indianapolis Center
14:25 37.1856 -83.0856 124° Southeast 438 504 27,000  Level Indianapolis Center
14:26 37.1181 -82.9575 123° Southeast 437 503 27,000  Level Indianapolis Center
14:27 37.0483 -82.8272 124° Southeast 441 507 27,000  Level Indianapolis Center
14:27 37.0128 -82.7572 122° Southeast 457 526 27,000  Level Atlanta Center
14:28 36.9428 -82.6311 125° Southeast 452 520 27,000  Level Atlanta Center
14:29 36.9078 -82.5694 125° Southeast 440 506 27,000  Level Indianapolis Center
14:29 36.8744 -82.5078 124° Southeast 447 514 27,000  Level Atlanta Center
14:30 36.8042 -82.3822 125° Southeast 447 514 27,000  Level Atlanta Center
14:31 36.7356 -82.2567 124° Southeast 447 514 27,000  Level Atlanta Center
14:32 36.6756 -82.1442 124° Southeast 442 509 27,000  Level Atlanta Center
14:33 36.6047 -82.0217 126° Southeast 442 509 27,000  Level Atlanta Center
14:34 36.5358 -81.8942 124° Southeast 442 509 27,000  Level Atlanta Center
14:35 36.4606 -81.7594 125° Southeast 442 509 27,000  Level Atlanta Center
14:36 36.3933 -81.6350 124° Southeast 436 502 27,000  Level Atlanta Center
14:37 36.3286 -81.5208 125° Southeast 436 502 27,000  Level Atlanta Center
14:38 36.2592 -81.3969 125° Southeast 436 502 27,000 -420 Level Atlanta Center
14:39 36.1878 -81.2706 125° Southeast 444 511 26,200 -1,020 Descending Atlanta Center
14:40 36.1158 -81.1419 125° Southeast 451 519 25,000 -1,200 Descending Atlanta Center
14:41 36.0461 -81.0161 124° Southeast 451 519 23,800 -1,020 Descending Atlanta Center
14:42 35.9675 -80.8831 126° Southeast 446 513 23,000 -600 Descending Atlanta Center
14:43 35.8997 -80.7600 124° Southeast 441 507 22,600 -780 Descending Atlanta Center
14:44 35.8297 -80.6425 126° Southeast 441 507 21,500 -1,260 Descending Atlanta Center
14:45 35.7619 -80.5250 125° Southeast 436 502 20,100 -1,500 Descending Atlanta Center
14:46 35.6958 -80.4103 125° Southeast 419 482 18,500 -1,740 Descending Atlanta Center
14:47 35.6300 -80.2983 126° Southeast 419 482 16,700 -1,980 Descending Atlanta Center
14:48 35.5728 -80.2011 126° Southeast 407 468 14,600 -2,100 Descending Atlanta Center
14:49 35.5175 -80.1044 125° Southeast 373 429 12,500 -2,160 Descending Atlanta Center
14:50 35.4622 -80.0100 126° Southeast 345 397 10,300 -2,100 Descending Atlanta Center
14:51 35.4094 -79.9236 127° Southeast 330 380 8,300 -2,040 Descending Atlanta Center
14:52 35.3650 -79.8467 125° Southeast 303 349 6,300 -1,800 Descending Atlanta Center
14:53 35.3192 -79.7856 133° Southeast 272 313 4,700 -1,560 Descending Atlanta Center
14:54 35.2714 -79.7344 139° Southeast 242 278 3,200 -1,500 Descending Atlanta Center